Time;durP1;ratioP1;P1;durP2;ratioP2;P2;SDS_P1;SDS_P2;PMS_P1;PMS_P2;Temp;Humidity;BMP_temperature;BMP_pressure;BME280_temperature;BME280_humidity;BME280_pressure;Samples;Min_cycle;Max_cycle;Signal;HPM_P1;HPM_P2
2023/04/26 00:00:18;;;;;;;11.90;6.40;;;6.20;99.90;;;;;;5034636;28;20178;-84
2023/04/26 00:02:43;;;;;;;16.80;6.43;;;6.20;99.90;;;;;;5034128;28;20174;-84
2023/04/26 00:05:09;;;;;;;11.60;6.80;;;6.30;99.90;;;;;;5030204;28;20518;-84
2023/04/26 00:07:36;;;;;;;12.10;6.90;;;;;;;;;;5017107;28;20224;-82
2023/04/26 00:10:03;;;;;;;16.92;6.85;;;6.40;99.90;;;;;;5017360;28;20178;-83
2023/04/26 00:12:28;;;;;;;15.77;5.10;;;6.40;99.90;;;;;;5031621;28;20217;-82
2023/04/26 00:14:54;;;;;;;11.60;5.40;;;;;;;;;;5017310;28;20745;-84
2023/04/26 00:17:20;;;;;;;11.60;5.10;;;6.40;99.90;;;;;;5032655;28;20257;-83
2023/04/26 00:19:45;;;;;;;11.07;5.00;;;6.30;99.90;;;;;;5029343;28;20486;-83
2023/04/26 00:22:11;;;;;;;6.77;4.70;;;6.30;99.90;;;;;;5011080;28;20213;-81
2023/04/26 00:24:37;;;;;;;7.40;4.73;;;6.20;99.90;;;;;;5011485;28;20177;-81
2023/04/26 00:27:07;;;;;;;9.63;5.40;;;6.20;99.90;;;;;;5012361;28;20440;-85
2023/04/26 00:29:33;;;;;;;9.30;5.90;;;6.10;99.90;;;;;;5019330;28;20178;-84
2023/04/26 00:32:02;;;;;;;10.37;5.23;;;6.00;99.90;;;;;;5025278;28;21118;-83
2023/04/26 00:34:37;;;;;;;13.90;5.82;;;5.80;99.90;;;;;;5020884;28;20185;-82
2023/04/26 00:37:04;;;;;;;8.82;5.25;;;5.80;99.90;;;;;;5027441;28;20174;-82
2023/04/26 00:39:29;;;;;;;12.73;5.40;;;5.80;99.90;;;;;;5032142;28;20169;-81
2023/04/26 00:41:55;;;;;;;10.50;5.40;;;5.60;99.90;;;;;;5030295;28;20181;-83
2023/04/26 00:44:21;;;;;;;12.03;5.00;;;5.60;99.90;;;;;;5030231;28;20654;-83
2023/04/26 00:46:48;;;;;;;14.57;5.60;;;5.50;99.90;;;;;;5019358;28;20471;-82
2023/04/26 00:49:20;;;;;;;16.10;6.78;;;5.40;99.90;;;;;;5031173;28;20433;-82
2023/04/26 00:51:47;;;;;;;16.23;6.25;;;5.40;99.90;;;;;;5034775;28;20232;-83
2023/04/26 00:54:14;;;;;;;9.68;6.72;;;5.40;99.90;;;;;;5032721;28;20188;-84
2023/04/26 00:56:41;;;;;;;24.83;8.77;;;5.40;99.90;;;;;;5033325;28;20217;-85
2023/04/26 00:59:07;;;;;;;13.52;7.47;;;5.30;99.90;;;;;;5028492;28;20198;-85
2023/04/26 01:01:34;;;;;;;12.10;7.70;;;5.30;99.90;;;;;;5026170;28;20193;-81
2023/04/26 01:04:00;;;;;;;19.75;9.82;;;5.30;99.90;;;;;;5024900;28;20179;-84
2023/04/26 01:06:31;;;;;;;12.98;8.93;;;5.20;99.90;;;;;;5023854;28;20270;-84
2023/04/26 01:09:00;;;;;;;18.25;8.63;;;5.10;99.90;;;;;;5008768;28;21155;-85
2023/04/26 01:11:26;;;;;;;11.10;6.72;;;5.10;99.90;;;;;;5016054;28;20170;-83
2023/04/26 01:13:52;;;;;;;15.00;8.30;;;5.00;99.90;;;;;;5035256;28;20177;-85
2023/04/26 01:16:18;;;;;;;19.93;6.93;;;5.00;99.90;;;;;;5014913;28;21035;-85
2023/04/26 01:18:51;;;;;;;12.77;8.13;;;4.90;99.90;;;;;;5028446;28;20639;-84
2023/04/26 01:21:23;;;;;;;11.50;7.03;;;4.90;99.90;;;;;;5014001;28;20182;-84
2023/04/26 01:23:50;;;;;;;19.55;9.45;;;4.60;99.90;;;;;;5027744;28;20194;-85
2023/04/26 01:26:16;;;;;;;7.18;4.90;;;4.60;99.90;;;;;;5023915;28;20241;-84
2023/04/26 01:28:42;;;;;;;18.67;6.60;;;4.50;99.90;;;;;;5030105;28;20655;-84
2023/04/26 01:31:07;;;;;;;9.40;5.43;;;4.40;99.90;;;;;;5027540;28;20378;-82
2023/04/26 01:33:33;;;;;;;11.87;6.03;;;4.40;99.90;;;;;;5025151;28;20181;-82
2023/04/26 01:35:59;;;;;;;17.47;7.80;;;;;;;;;;5021702;28;20231;-82
2023/04/26 01:38:24;;;;;;;11.83;8.07;;;4.60;99.90;;;;;;5024334;28;20180;-82
2023/04/26 01:40:50;;;;;;;16.63;8.47;;;4.60;99.90;;;;;;5022855;28;20441;-82
2023/04/26 01:43:18;;;;;;;21.20;8.83;;;4.60;99.90;;;;;;5022250;28;20663;-82
2023/04/26 01:45:47;;;;;;;17.40;9.65;;;4.60;99.90;;;;;;5028582;28;20195;-82
2023/04/26 01:48:13;;;;;;;13.07;6.90;;;4.60;99.90;;;;;;5029129;28;20594;-83
2023/04/26 01:50:38;;;;;;;21.30;10.27;;;4.60;99.90;;;;;;5017678;28;20169;-82
2023/04/26 01:53:04;;;;;;;17.30;7.97;;;4.70;99.90;;;;;;5030843;28;20202;-83
2023/04/26 01:55:29;;;;;;;17.37;8.70;;;4.70;99.90;;;;;;5021471;28;20197;-84
2023/04/26 01:57:55;;;;;;;14.40;8.30;;;4.70;99.90;;;;;;5035416;28;20178;-85
2023/04/26 02:00:21;;;;;;;21.93;11.57;;;4.60;99.90;;;;;;5015396;28;20178;-84
2023/04/26 02:02:46;;;;;;;14.57;9.10;;;4.60;99.90;;;;;;5032652;28;20174;-84
2023/04/26 02:05:12;;;;;;;14.60;8.03;;;;;;;;;;5038958;28;20216;-84
2023/04/26 02:07:38;;;;;;;14.90;10.47;;;4.50;99.90;;;;;;5032243;28;20608;-84
2023/04/26 02:10:07;;;;;;;15.60;9.30;;;4.50;99.90;;;;;;5027591;28;20440;-83
2023/04/26 02:12:32;;;;;;;14.85;7.65;;;6.10;99.90;;;;;;5032016;28;20182;-84
2023/04/26 02:14:58;;;;;;;17.73;8.90;;;4.50;99.90;;;;;;5034869;28;20490;-85
2023/04/26 02:17:25;;;;;;;16.47;8.07;;;4.40;99.90;;;;;;5017149;28;20174;-84
2023/04/26 02:19:50;;;;;;;16.48;8.32;;;4.20;99.90;;;;;;5038953;28;20170;-83
2023/04/26 02:22:16;;;;;;;22.90;10.77;;;4.10;99.90;;;;;;5022764;28;20181;-84
2023/04/26 02:24:42;;;;;;;14.90;9.07;;;4.00;99.90;;;;;;5037354;28;20166;-83
2023/04/26 02:27:07;;;;;;;23.63;10.10;;;4.00;99.90;;;;;;5038494;28;20196;-84
2023/04/26 02:29:34;;;;;;;17.63;10.00;;;4.00;99.90;;;;;;5039247;28;20173;-84
2023/04/26 02:32:00;;;;;;;17.17;9.50;;;;;;;;;;5032033;28;20249;-83
2023/04/26 02:34:26;;;;;;;28.90;9.97;;;3.80;99.90;;;;;;5007870;28;20208;-84
2023/04/26 02:36:51;;;;;;;23.83;10.47;;;3.80;99.90;;;;;;5037444;28;20468;-85
2023/04/26 02:39:17;;;;;;;15.57;8.23;;;3.80;99.90;;;;;;5032883;28;20182;-84
2023/04/26 02:41:43;;;;;;;17.17;7.87;;;;;;;;;;5036285;28;20257;-83
2023/04/26 02:44:08;;;;;;;15.30;7.90;;;3.70;99.90;;;;;;5032460;28;20456;-84
2023/04/26 02:46:34;;;;;;;19.83;9.60;;;3.60;99.90;;;;;;5035037;28;20467;-84
2023/04/26 02:49:00;;;;;;;17.00;7.93;;;3.60;99.90;;;;;;5028569;28;20855;-84
2023/04/26 02:51:25;;;;;;;16.57;9.07;;;3.60;99.90;;;;;;5033732;28;20185;-84
2023/04/26 02:53:51;;;;;;;21.73;8.77;;;3.60;99.90;;;;;;5037553;28;20174;-83
2023/04/26 02:56:16;;;;;;;15.30;8.53;;;3.60;99.90;;;;;;5036924;28;20544;-82
2023/04/26 02:58:42;;;;;;;16.80;8.60;;;3.60;99.90;;;;;;5026898;28;20165;-82
2023/04/26 03:01:07;;;;;;;13.03;7.13;;;3.60;99.90;;;;;;5044781;28;20204;-83
2023/04/26 03:03:33;;;;;;;15.00;7.97;;;3.60;99.90;;;;;;5035259;28;20204;-83
2023/04/26 03:05:58;;;;;;;13.80;7.60;;;3.60;99.90;;;;;;5025093;28;20202;-83
2023/04/26 03:08:24;;;;;;;12.17;6.30;;;3.60;99.90;;;;;;5030204;28;20193;-83
2023/04/26 03:10:49;;;;;;;19.03;6.80;;;3.60;99.90;;;;;;5015787;28;20180;-83
2023/04/26 03:13:15;;;;;;;16.63;7.23;;;3.60;99.90;;;;;;5031439;28;20581;-83
2023/04/26 03:15:45;;;;;;;10.90;6.40;;;3.70;99.90;;;;;;5019077;28;20202;-84
2023/04/26 03:18:10;;;;;;;13.23;5.93;;;2.70;99.90;;;;;;5022090;28;20638;-85
2023/04/26 03:20:36;;;;;;;10.27;5.67;;;3.60;99.90;;;;;;5026546;28;20166;-85
2023/04/26 03:23:02;;;;;;;11.20;6.70;;;3.60;99.90;;;;;;5013572;28;20628;-85
2023/04/26 03:25:27;;;;;;;18.65;6.28;;;3.60;99.90;;;;;;5038727;28;20208;-84
2023/04/26 03:27:54;;;;;;;14.03;5.97;;;3.60;99.90;;;;;;5036908;28;20173;-86
2023/04/26 03:30:19;;;;;;;10.60;5.35;;;3.60;99.90;;;;;;5033310;28;20186;-84
2023/04/26 03:32:45;;;;;;;10.60;5.23;;;4.30;99.90;;;;;;5040857;28;20235;-86
2023/04/26 03:35:10;;;;;;;17.10;4.57;;;3.50;99.90;;;;;;5026045;28;20222;-85
2023/04/26 03:37:38;;;;;;;15.53;6.00;;;3.40;99.90;;;;;;5026946;28;20174;-84
2023/04/26 03:40:07;;;;;;;11.10;6.07;;;3.40;99.90;;;;;;5025736;28;20191;-83
2023/04/26 03:42:33;;;;;;;17.02;5.15;;;3.20;99.90;;;;;;5029555;28;20172;-85
2023/04/26 03:44:58;;;;;;;18.77;5.80;;;3.20;99.90;;;;;;5031824;28;20201;-84
2023/04/26 03:47:24;;;;;;;8.97;5.37;;;3.20;99.90;;;;;;5036823;28;20184;-85
2023/04/26 03:49:49;;;;;;;9.30;5.03;;;3.10;99.90;;;;;;5028016;28;20179;-85
2023/04/26 03:52:15;;;;;;;10.60;5.30;;;3.10;99.90;;;;;;5030340;28;20602;-86
2023/04/26 03:54:41;;;;;;;13.50;4.67;;;3.10;99.90;;;;;;5028744;28;20708;-85
2023/04/26 03:57:06;;;;;;;16.73;5.70;;;3.10;99.90;;;;;;5033379;28;20456;-84
2023/04/26 03:59:32;;;;;;;11.00;4.80;;;3.00;99.90;;;;;;5017475;28;20254;-84
2023/04/26 04:01:57;;;;;;;13.20;4.97;;;2.90;99.90;;;;;;5035271;28;20173;-85
2023/04/26 04:04:23;;;;;;;11.80;4.53;;;;;;;;;;5031149;28;20179;-85
2023/04/26 04:06:49;;;;;;;14.13;5.35;;;2.90;99.90;;;;;;5020400;28;20190;-85
2023/04/26 04:09:15;;;;;;;9.60;4.47;;;2.90;99.90;;;;;;5021552;28;20189;-84
2023/04/26 04:11:41;;;;;;;6.87;4.57;;;2.80;99.90;;;;;;5022548;28;20819;-84
2023/04/26 04:14:09;;;;;;;11.03;5.50;;;2.70;99.90;;;;;;5009653;28;20432;-83
2023/04/26 04:16:34;;;;;;;10.63;5.32;;;2.70;99.90;;;;;;5022766;28;20260;-84
2023/04/26 04:19:00;;;;;;;9.33;5.07;;;;;;;;;;5029761;28;20182;-82
2023/04/26 04:21:26;;;;;;;8.00;4.73;;;2.70;99.90;;;;;;5009731;28;20183;-81
2023/04/26 04:23:52;;;;;;;9.00;4.80;;;2.60;99.90;;;;;;5027283;28;20491;-81
2023/04/26 04:26:18;;;;;;;10.00;4.90;;;2.70;99.90;;;;;;5026194;28;20456;-81
2023/04/26 04:28:45;;;;;;;14.23;5.03;;;2.70;99.90;;;;;;5024065;28;20437;-83
2023/04/26 04:31:11;;;;;;;14.73;5.68;;;2.80;99.90;;;;;;5026640;28;20178;-83
2023/04/26 04:33:37;;;;;;;11.73;6.87;;;2.90;99.90;;;;;;5019160;28;20244;-82
2023/04/26 04:36:05;;;;;;;17.88;6.28;;;4.10;99.90;;;;;;5017884;28;20489;-82
2023/04/26 04:38:31;;;;;;;10.50;5.50;;;4.10;99.90;;;;;;4996700;28;20174;-85
2023/04/26 04:40:57;;;;;;;8.87;5.00;;;4.90;99.90;;;;;;5027308;28;20248;-82
2023/04/26 04:43:23;;;;;;;8.00;3.90;;;5.50;99.90;;;;;;5006714;28;20492;-83
2023/04/26 04:45:48;;;;;;;12.83;4.87;;;7.20;99.90;;;;;;5005815;28;20209;-82
2023/04/26 04:48:15;;;;;;;8.93;3.87;;;;;;;;;;5027420;28;20452;-82
2023/04/26 04:50:41;;;;;;;13.23;4.20;;;8.30;99.90;;;;;;5028839;28;20632;-82
2023/04/26 04:53:11;;;;;;;12.40;5.00;;;9.80;99.90;;;;;;5030543;28;20260;-80
2023/04/26 04:55:37;;;;;;;11.23;5.20;;;9.80;99.90;;;;;;5029438;28;20209;-82
2023/04/26 04:58:03;;;;;;;10.10;6.53;;;;;;;;;;5011063;28;20662;-80
2023/04/26 05:00:29;;;;;;;10.48;4.85;;;;;;;;;;5029619;28;20216;-80
2023/04/26 05:02:55;;;;;;;9.02;5.50;;;12.20;99.90;;;;;;5025665;28;20242;-79
2023/04/26 05:05:21;;;;;;;12.95;8.52;;;;;;;;;;5019043;28;20233;-80
2023/04/26 05:07:47;;;;;;;8.38;4.63;;;15.50;99.90;;;;;;5029915;28;20658;-82
2023/04/26 05:10:13;;;;;;;10.73;3.80;;;15.40;99.90;;;;;;5030265;28;20189;-83
2023/04/26 05:12:39;;;;;;;9.27;4.50;;;;;;;;;;5030439;28;20433;-84
2023/04/26 05:15:06;;;;;;;13.60;4.28;;;15.00;99.90;;;;;;5025225;28;20515;-83
2023/04/26 05:17:32;;;;;;;9.00;4.30;;;16.90;99.90;;;;;;5028218;28;20186;-85
2023/04/26 05:19:58;;;;;;;3.87;2.30;;;;;;;;;;5025659;28;20448;-86
2023/04/26 05:22:24;;;;;;;5.70;3.37;;;;;;;;;;5010953;28;20430;-85
2023/04/26 05:24:51;;;;;;;5.57;3.50;;;;;;;;;;5026948;28;20524;-84
2023/04/26 05:27:16;;;;;;;6.17;3.33;;;;;;;;;;5014230;28;20496;-86
2023/04/26 05:29:42;;;;;;;6.07;4.53;;;;;;;;;;5023341;28;20441;-86
2023/04/26 05:32:09;;;;;;;7.50;3.07;;;;;;;;;;5010237;28;20430;-84
2023/04/26 05:34:36;;;;;;;7.20;3.53;;;;;;;;;;5024943;28;20426;-86
2023/04/26 05:37:02;;;;;;;9.00;3.07;;;;;;;;;;5009307;28;20523;-85
2023/04/26 05:39:28;;;;;;;7.83;4.00;;;;;;;;;;5029514;28;20471;-86
2023/04/26 05:41:54;;;;;;;12.07;5.97;;;;;;;;;;5009018;28;20517;-86
2023/04/26 05:44:20;;;;;;;10.70;7.00;;;;;;;;;;5029642;28;20460;-85
2023/04/26 05:46:46;;;;;;;14.70;8.63;;;;;;;;;;5012005;28;20444;-86
2023/04/26 05:49:12;;;;;;;10.33;6.03;;;;;;;;;;5027585;28;20437;-86
2023/04/26 05:51:38;;;;;;;14.80;7.03;;;;;;;;;;5024673;28;20958;-86
2023/04/26 05:54:04;;;;;;;11.50;7.20;;;;;;;;;;5027632;28;20511;-86
2023/04/26 05:56:30;;;;;;;10.43;7.17;;;;;;;;;;5028075;28;20472;-86
2023/04/26 05:58:56;;;;;;;8.97;6.87;;;29.70;46.60;;;;;;5014279;28;20459;-84
2023/04/26 06:01:22;;;;;;;12.33;7.30;;;;;;;;;;5016869;28;20460;-86
2023/04/26 06:03:48;;;;;;;9.73;6.20;;;;;;;;;;5030224;28;20424;-86
2023/04/26 06:06:14;;;;;;;9.03;7.53;;;;;;;;;;5030877;28;20440;-86
2023/04/26 06:08:41;;;;;;;7.53;6.13;;;27.50;47.00;;;;;;5025720;28;20438;-86
2023/04/26 06:11:10;;;;;;;10.83;8.27;;;;;;;;;;5011138;28;20440;-85
2023/04/26 06:13:36;;;;;;;8.43;7.53;;;;;;;;;;5027120;28;20447;-86
2023/04/26 06:16:02;;;;;;;17.80;13.57;;;;;;;;;;5015245;28;20482;-85
2023/04/26 06:18:28;;;;;;;23.43;12.97;;;;;;;;;;5029935;28;20460;-86
2023/04/26 06:20:54;;;;;;;16.40;10.53;;;;;;;;;;5031182;28;20466;-86
2023/04/26 06:23:20;;;;;;;14.47;8.47;;;;;;;;;;5030610;28;20454;-85
2023/04/26 06:25:46;;;;;;;16.73;9.10;;;;;;;;;;5028921;28;20469;-85
2023/04/26 06:28:12;;;;;;;13.20;8.60;;;;;;;;;;5024612;28;20430;-86
2023/04/26 06:30:38;;;;;;;12.20;7.27;;;;;;;;;;5009350;28;20434;-86
2023/04/26 06:33:04;;;;;;;17.53;8.60;;;;;;;;;;5005918;28;20503;-86
2023/04/26 06:35:30;;;;;;;9.70;7.60;;;;;;;;;;5026166;28;20472;-84
2023/04/26 06:37:56;;;;;;;12.40;8.30;;;;;;;;;;5010902;28;21225;-86
2023/04/26 06:40:22;;;;;;;10.93;6.83;;;;;;;;;;5027960;28;20433;-85
2023/04/26 06:42:48;;;;;;;8.90;7.37;;;;;;;;;;5024327;28;20449;-84
2023/04/26 06:45:15;;;;;;;9.83;7.10;;;;;;;;;;5003569;28;20477;-84
2023/04/26 06:47:40;;;;;;;9.00;8.10;;;;;;;;;;5012373;28;20435;-84
2023/04/26 06:50:07;;;;;;;10.60;8.20;;;;;;;;;;5026228;28;20447;-85
2023/04/26 06:52:33;;;;;;;9.43;8.43;;;;;;;;;;5028314;28;20439;-84
2023/04/26 06:55:02;;;;;;;10.07;8.67;;;28.90;40.40;;;;;;5010277;28;20468;-83
2023/04/26 06:57:28;;;;;;;10.50;8.00;;;;;;;;;;5011275;28;21102;-84
2023/04/26 06:59:54;;;;;;;13.13;8.87;;;;;;;;;;5015523;28;20411;-84
2023/04/26 07:02:22;;;;;;;8.70;7.90;;;28.90;53.60;;;;;;5030689;28;20427;-84
2023/04/26 07:04:47;;;;;;;15.40;8.90;;;28.10;49.40;;;;;;5033456;28;20478;-86
2023/04/26 07:07:14;;;;;;;8.23;6.73;;;;;;;;;;5017048;28;20451;-86
2023/04/26 07:09:39;;;;;;;7.33;6.57;;;30.60;42.30;;;;;;5033099;28;20185;-86
2023/04/26 07:12:05;;;;;;;9.90;5.63;;;;;;;;;;5015114;28;20524;-86
2023/04/26 07:14:31;;;;;;;8.03;5.10;;;;;;;;;;5015403;28;20300;-85
2023/04/26 07:16:57;;;;;;;4.53;4.13;;;;;;;;;;5033344;28;20460;-86
2023/04/26 07:19:23;;;;;;;8.00;4.87;;;;;;;;;;5016646;28;20455;-84
2023/04/26 07:21:52;;;;;;;5.00;4.00;;;;;;;;;;5029719;28;20504;-85
2023/04/26 07:24:18;;;;;;;5.00;4.50;;;27.80;35.20;;;;;;5017216;28;20488;-85
2023/04/26 07:26:44;;;;;;;7.70;4.53;;;;;;;;;;5018709;28;20478;-86
2023/04/26 07:29:10;;;;;;;5.57;4.57;;;;;;;;;;5016509;28;20193;-85
2023/04/26 07:31:35;;;;;;;6.20;5.00;;;29.40;35.10;;;;;;5021768;28;20423;-86
2023/04/26 07:34:01;;;;;;;11.40;4.27;;;;;;;;;;5016014;28;20433;-85
2023/04/26 07:36:27;;;;;;;9.23;4.40;;;;;;;;;;5035937;28;20263;-85
2023/04/26 07:38:53;;;;;;;5.47;4.53;;;;;;;;;;5033981;28;20977;-86
2023/04/26 07:41:19;;;;;;;7.33;5.87;;;;;;;;;;5032073;28;20429;-85
2023/04/26 07:43:48;;;;;;;7.20;5.23;;;27.20;35.70;;;;;;5031252;28;20441;-85
2023/04/26 07:46:14;;;;;;;11.77;5.73;;;;;;;;;;5033036;28;20787;-85
2023/04/26 07:48:40;;;;;;;8.70;4.87;;;;;;;;;;5032890;28;20458;-85
2023/04/26 07:51:07;;;;;;;4.93;4.53;;;29.90;33.50;;;;;;5034171;28;20432;-85
2023/04/26 07:53:33;;;;;;;9.50;5.30;;;;;;;;;;5017058;28;20511;-85
2023/04/26 07:55:59;;;;;;;6.63;5.20;;;;;;;;;;5032358;28;20506;-84
2023/04/26 07:58:25;;;;;;;7.83;5.40;;;;;;;;;;5018673;28;20428;-83
2023/04/26 08:00:51;;;;;;;7.57;5.10;;;;;;;;;;5032279;28;20636;-84
2023/04/26 08:03:17;;;;;;;9.67;5.50;;;26.70;39.40;;;;;;5023241;28;20431;-85
2023/04/26 08:05:43;;;;;;;7.40;4.83;;;;;;;;;;5034982;28;20458;-84
2023/04/26 08:08:08;;;;;;;5.53;4.23;;;27.40;42.90;;;;;;5019704;28;20181;-85
2023/04/26 08:10:35;;;;;;;8.07;4.80;;;;;;;;;;5017393;28;20448;-85
2023/04/26 08:13:02;;;;;;;6.40;5.13;;;;;;;;;;5035376;28;20180;-85
2023/04/26 08:15:28;;;;;;;7.27;5.20;;;;;;;;;;5025501;28;20465;-84
2023/04/26 08:17:54;;;;;;;8.67;5.30;;;;;;;;;;5028825;28;20456;-84
2023/04/26 08:20:20;;;;;;;10.43;5.60;;;;;;;;;;5029491;28;20979;-84
2023/04/26 08:22:46;;;;;;;7.50;4.50;;;;;;;;;;5028846;28;20449;-84
2023/04/26 08:25:12;;;;;;;6.83;5.07;;;;;;;;;;5029899;28;20457;-84
2023/04/26 08:27:39;;;;;;;7.13;5.57;;;;;;;;;;5029325;28;20575;-84
2023/04/26 08:30:05;;;;;;;9.23;5.17;;;;;;;;;;5030918;28;20451;-84
2023/04/26 08:32:32;;;;;;;8.73;4.77;;;23.90;37.40;;;;;;5028795;28;20458;-84
2023/04/26 08:34:59;;;;;;;5.33;4.80;;;24.00;36.20;;;;;;5027651;28;21218;-85
2023/04/26 08:37:24;;;;;;;10.87;6.60;;;;;;;;;;5015011;28;20441;-84
2023/04/26 08:39:50;;;;;;;10.37;5.70;;;;;;;;;;5030676;28;20995;-84
2023/04/26 08:42:16;;;;;;;12.80;6.80;;;25.20;37.10;;;;;;5015856;28;20433;-84
2023/04/26 08:44:44;;;;;;;9.97;5.20;;;25.90;36.10;;;;;;5029479;28;20454;-84
2023/04/26 08:47:18;;;;;;;8.43;5.00;;;27.40;37.00;;;;;;5031937;28;20472;-84
2023/04/26 08:49:51;;;;;;;10.40;5.70;;;26.80;33.20;;;;;;5029312;28;20443;-83
2023/04/26 08:52:22;;;;;;;8.23;6.17;;;;;;;;;;5016935;28;20446;-84
2023/04/26 08:54:48;;;;;;;11.60;5.43;;;23.40;37.20;;;;;;5011710;28;20472;-84
2023/04/26 08:57:15;;;;;;;7.30;5.20;;;;;;;;;;5028572;28;20440;-85
2023/04/26 08:59:41;;;;;;;7.60;4.83;;;;;;;;;;5032044;28;20431;-85
2023/04/26 09:02:09;;;;;;;9.67;5.33;;;24.20;34.00;;;;;;5031177;28;20522;-86
2023/04/26 09:04:36;;;;;;;7.93;5.50;;;25.20;32.30;;;;;;5027540;28;20417;-85
2023/04/26 09:07:03;;;;;;;7.83;3.93;;;24.70;32.00;;;;;;5028747;28;20470;-85
2023/04/26 09:09:40;;;;;;;9.23;5.23;;;22.20;35.10;;;;;;5028310;28;20490;-85
2023/04/26 09:12:06;;;;;;;8.03;3.87;;;;;;;;;;5028037;28;20447;-85
2023/04/26 09:14:32;;;;;;;8.00;4.27;;;19.70;36.90;;;;;;5026244;28;20906;-85
2023/04/26 09:16:57;;;;;;;8.00;4.40;;;19.70;37.40;;;;;;5027197;28;20464;-84
2023/04/26 09:19:37;;;;;;;13.00;5.40;;;19.30;38.50;;;;;;5030734;28;20178;-85
2023/04/26 09:22:03;;;;;;;7.97;4.97;;;17.90;40.50;;;;;;5031023;28;20177;-85
2023/04/26 09:24:46;;;;;;;8.70;4.80;;;18.20;40.60;;;;;;5029659;28;20463;-86
2023/04/26 09:27:12;;;;;;;10.30;7.10;;;18.10;41.80;;;;;;5027210;28;20421;-84
2023/04/26 09:29:38;;;;;;;9.60;5.20;;;;;;;;;;5012350;28;20521;-85
2023/04/26 09:32:04;;;;;;;11.47;5.60;;;;;;;;;;5029387;28;20204;-85
2023/04/26 09:34:44;;;;;;;11.43;5.30;;;15.50;46.30;;;;;;5026890;28;20900;-84
2023/04/26 09:37:13;;;;;;;4.80;3.77;;;14.70;49.00;;;;;;5029709;28;20471;-85
2023/04/26 09:39:40;;;;;;;5.97;4.70;;;14.50;49.70;;;;;;5019763;28;20471;-84
2023/04/26 09:42:07;;;;;;;11.13;4.83;;;14.90;51.40;;;;;;5029993;28;20983;-84
2023/04/26 09:44:32;;;;;;;7.77;5.30;;;15.90;47.90;;;;;;5025996;28;20465;-85
2023/04/26 09:47:09;;;;;;;6.30;4.60;;;15.90;48.50;;;;;;5026841;28;20440;-85
2023/04/26 09:49:47;;;;;;;6.07;4.33;;;16.60;50.20;;;;;;5010254;28;20185;-85
2023/04/26 09:52:14;;;;;;;8.13;4.47;;;17.70;46.00;;;;;;5027669;28;20441;-84
2023/04/26 09:54:48;;;;;;;9.57;4.80;;;18.30;44.40;;;;;;5010479;28;20448;-85
2023/04/26 09:57:16;;;;;;;10.00;5.60;;;18.80;43.00;;;;;;5027825;28;20469;-85
2023/04/26 09:59:44;;;;;;;9.43;4.77;;;18.80;43.40;;;;;;5030426;28;20456;-85
2023/04/26 10:02:15;;;;;;;6.70;4.20;;;19.40;41.40;;;;;;5024882;28;20425;-85
2023/04/26 10:04:43;;;;;;;5.70;5.10;;;19.10;42.80;;;;;;5023542;28;20432;-84
2023/04/26 10:07:09;;;;;;;8.33;4.20;;;;;;;;;;5010631;28;20441;-85
2023/04/26 10:09:35;;;;;;;13.53;5.23;;;18.70;43.40;;;;;;5030909;28;20425;-85
2023/04/26 10:12:02;;;;;;;10.00;4.20;;;;;;;;;;5030282;28;20459;-84
2023/04/26 10:14:28;;;;;;;7.57;4.60;;;19.70;41.00;;;;;;5030187;28;20620;-84
2023/04/26 10:16:54;;;;;;;6.37;3.90;;;19.70;41.60;;;;;;5014858;28;20468;-82
2023/04/26 10:19:21;;;;;;;7.30;4.60;;;20.00;44.10;;;;;;5026397;28;20425;-83
2023/04/26 10:21:50;;;;;;;7.43;4.40;;;18.60;42.10;;;;;;5023627;28;20539;-82
2023/04/26 10:24:16;;;;;;;5.80;4.47;;;18.30;43.30;;;;;;5015993;28;20674;-82
2023/04/26 10:26:56;;;;;;;10.20;5.57;;;18.10;42.80;;;;;;5026122;28;20444;-83
2023/04/26 10:29:23;;;;;;;10.93;4.37;;;18.50;41.40;;;;;;5025936;28;20438;-83
2023/04/26 10:32:01;;;;;;;10.70;5.30;;;18.50;42.00;;;;;;5025994;28;20550;-83
2023/04/26 10:34:27;;;;;;;9.77;5.43;;;16.50;47.20;;;;;;5024308;28;20531;-85
2023/04/26 10:37:13;;;;;;;9.33;5.20;;;16.50;47.60;;;;;;5007357;28;20468;-84
2023/04/26 10:39:44;;;;;;;11.67;5.70;;;15.50;48.20;;;;;;5025413;28;20512;-85
2023/04/26 10:42:23;;;;;;;9.53;7.00;;;14.50;50.50;;;;;;5015567;28;20445;-83
2023/04/26 10:44:52;;;;;;;7.50;5.13;;;14.80;51.30;;;;;;5025064;28;20973;-84
2023/04/26 10:47:33;;;;;;;12.77;4.77;;;14.90;51.60;;;;;;5026438;28;20428;-84
2023/04/26 10:50:09;;;;;;;9.83;4.83;;;15.50;49.60;;;;;;5025908;28;20443;-84
2023/04/26 10:52:37;;;;;;;12.43;3.77;;;15.00;50.30;;;;;;5009777;28;20475;-84
2023/04/26 10:55:05;;;;;;;6.37;3.80;;;14.90;50.00;;;;;;5023450;28;21016;-84
2023/04/26 10:57:49;;;;;;;7.60;4.40;;;15.00;50.60;;;;;;5023433;28;20859;-84
2023/04/26 11:00:24;;;;;;;10.17;5.43;;;15.60;50.80;;;;;;5022287;28;20437;-83
2023/04/26 11:02:56;;;;;;;7.20;4.47;;;16.30;51.00;;;;;;5024330;28;20447;-84
2023/04/26 11:05:43;;;;;;;7.13;5.20;;;16.40;51.80;;;;;;5022888;28;21153;-84
2023/04/26 11:08:18;;;;;;;6.13;4.90;;;16.50;52.50;;;;;;5010143;28;20433;-84
2023/04/26 11:10:50;;;;;;;6.60;3.80;;;16.90;49.90;;;;;;5024781;28;20505;-84
2023/04/26 11:13:16;;;;;;;4.47;3.70;;;17.00;48.80;;;;;;5021938;28;20487;-83
2023/04/26 11:15:42;;;;;;;6.30;3.83;;;16.30;45.70;;;;;;5024026;28;20460;-84
2023/04/26 11:18:08;;;;;;;6.97;4.13;;;16.10;49.30;;;;;;5023496;28;20441;-84
2023/04/26 11:20:33;;;;;;;6.53;4.50;;;16.10;49.20;;;;;;5024533;28;20793;-83
2023/04/26 11:22:59;;;;;;;8.50;4.30;;;16.00;50.90;;;;;;5024136;28;20338;-83
2023/04/26 11:25:29;;;;;;;8.30;4.20;;;15.80;48.90;;;;;;5007422;28;20210;-83
2023/04/26 11:28:01;;;;;;;7.53;3.70;;;15.70;48.60;;;;;;5021499;28;20432;-84
2023/04/26 11:30:31;;;;;;;6.20;4.03;;;15.70;49.20;;;;;;5021927;28;20441;-84
2023/04/26 11:33:01;;;;;;;10.93;4.37;;;16.50;50.20;;;;;;5014830;28;20441;-83
2023/04/26 11:35:28;;;;;;;6.13;4.10;;;16.80;47.50;;;;;;5023500;28;20548;-84
2023/04/26 11:37:58;;;;;;;6.00;4.30;;;17.00;46.90;;;;;;5025333;28;20428;-84
2023/04/26 11:40:30;;;;;;;5.93;3.90;;;16.70;45.50;;;;;;5026306;28;20451;-84
2023/04/26 11:43:06;;;;;;;9.13;4.80;;;16.90;46.00;;;;;;5024160;28;20438;-84
2023/04/26 11:45:33;;;;;;;7.23;4.07;;;17.30;45.10;;;;;;5022385;28;20519;-84
2023/04/26 11:48:01;;;;;;;10.60;4.33;;;17.70;45.80;;;;;;5018578;28;20783;-84
2023/04/26 11:50:28;;;;;;;13.60;4.50;;;16.90;46.70;;;;;;5024040;28;21132;-84
2023/04/26 11:52:55;;;;;;;7.47;4.60;;;16.70;47.20;;;;;;5025831;28;20433;-85
2023/04/26 11:55:26;;;;;;;6.57;3.80;;;16.70;47.70;;;;;;5025616;28;20480;-84
2023/04/26 11:57:52;;;;;;;6.40;3.43;;;16.40;47.00;;;;;;5025686;28;20432;-84
2023/04/26 12:00:18;;;;;;;6.07;3.90;;;16.30;47.30;;;;;;5028076;28;20430;-84
2023/04/26 12:02:45;;;;;;;8.00;4.00;;;16.20;46.90;;;;;;5026521;28;20220;-85
2023/04/26 12:05:31;;;;;;;7.23;3.70;;;15.80;47.10;;;;;;5024944;28;20818;-84
2023/04/26 12:07:59;;;;;;;5.53;3.67;;;15.70;47.70;;;;;;5026278;28;20412;-82
2023/04/26 12:10:25;;;;;;;5.97;3.80;;;15.10;47.70;;;;;;5026692;28;20456;-84
2023/04/26 12:12:53;;;;;;;4.97;4.20;;;15.40;48.00;;;;;;5025700;28;20497;-84
2023/04/26 12:15:22;;;;;;;14.87;4.10;;;15.30;49.60;;;;;;5026003;28;20476;-84
2023/04/26 12:17:53;;;;;;;8.57;3.77;;;15.30;49.50;;;;;;5009222;28;20428;-83
2023/04/26 12:20:25;;;;;;;4.93;3.33;;;15.30;49.20;;;;;;5025318;28;20516;-83
2023/04/26 12:23:16;;;;;;;9.60;4.70;;;14.80;51.30;;;;;;5022707;28;20447;-83
2023/04/26 12:25:56;;;;;;;6.50;3.47;;;14.20;52.30;;;;;;5024430;28;20465;-82
2023/04/26 12:28:22;;;;;;;9.63;3.70;;;13.50;51.70;;;;;;5026061;28;20448;-84
2023/04/26 12:30:49;;;;;;;6.30;3.70;;;14.40;52.30;;;;;;5024918;28;20436;-82
2023/04/26 12:33:15;;;;;;;4.90;3.63;;;14.60;52.10;;;;;;5027711;28;20504;-84
2023/04/26 12:35:41;;;;;;;5.17;3.50;;;14.70;52.80;;;;;;5025817;28;20500;-84
2023/04/26 12:38:06;;;;;;;5.10;3.60;;;14.60;51.30;;;;;;5023831;28;20839;-83
2023/04/26 12:40:32;;;;;;;8.50;3.97;;;;;;;;;;5023823;28;20288;-83
2023/04/26 12:42:58;;;;;;;9.37;3.60;;;14.40;51.90;;;;;;5023053;28;20212;-84
2023/04/26 12:45:25;;;;;;;9.43;3.67;;;14.40;52.80;;;;;;5024551;28;20464;-82
2023/04/26 12:47:52;;;;;;;9.20;4.70;;;14.50;52.10;;;;;;5026129;28;20182;-81
2023/04/26 12:50:18;;;;;;;8.60;4.13;;;15.00;52.90;;;;;;5029522;28;20432;-83
2023/04/26 12:52:44;;;;;;;11.53;4.00;;;15.00;52.90;;;;;;5029368;28;20448;-85
2023/04/26 12:55:11;;;;;;;4.80;3.80;;;14.80;53.20;;;;;;5010335;28;20495;-84
2023/04/26 12:57:39;;;;;;;9.40;3.67;;;14.50;54.50;;;;;;5022902;28;20832;-84
2023/04/26 13:00:06;;;;;;;7.50;3.60;;;14.60;52.60;;;;;;5023074;28;20490;-85
2023/04/26 13:02:32;;;;;;;5.50;3.77;;;14.80;53.50;;;;;;5023359;28;20436;-84
2023/04/26 13:05:00;;;;;;;5.83;4.30;;;15.00;54.10;;;;;;5005612;28;20583;-83
2023/04/26 13:07:26;;;;;;;5.60;3.20;;;15.60;50.40;;;;;;5026293;28;20460;-84
2023/04/26 13:09:52;;;;;;;6.10;3.83;;;15.70;50.70;;;;;;5026758;28;20436;-84
2023/04/26 13:12:18;;;;;;;6.40;3.83;;;;;;;;;;5023972;28;20424;-84
2023/04/26 13:14:44;;;;;;;5.90;4.20;;;15.70;49.20;;;;;;5022391;28;20206;-83